Terminal Aerodrome Forecast
Issued by NWS Cleveland, OH

Home | Current Version | Previous Version | Graphics & Text | Print | Product List | Glossary On
Versions: 1 2 3 4 5 6 7 8 9 10 11 12 13 14 15 16 17 18 19 20
000
FTUS41 KCLE 302335
TAFCAK
TAF
KCAK 302335Z 0100/0124 13010KT 3SM -RA BR OVC060
     FM010300 11008KT 3SM -RA BR OVC015
      TEMPO 0103/0105 2SM -RA BR OVC007
     FM010500 16010KT 2SM -RA BR OVC007
     FM011400 22010KT 6SM BR OVC008
     FM012200 29005KT P6SM OVC025=

USA.gov is the U.S. government's official web portal to all federal, state and local government web resources and services.